Thursday, August 16, 2018, 5:34 PM EDT
Back to Local

KAFN, Jaffrey Muni-silver Ranch

Location: Jaffrey, NH, United States Lat: 42.8
Local Time: 5:34 PM EDT (21:34 GMT) Lon: -72
Time Zone: US/Eastern Elev: 1040 ft

Show me the last for .
Show Coded

Time T Td Feel RH Dir Speed Gust Alt SLP Vis Weather Sky Remarks
2018-08-16 16:52 85 63 87 47 300° 9 - 30.05 30.04 10 CLR None
2018-08-16 15:52 86 63 88 46 Variable 5 - 30.05 30.04 10 FEW055 None
2018-08-16 14:52 86 63 88 46 320° 10 - 30.04 30.03 10 CLR None
2018-08-16 13:52 85 63 87 47 310° 9 18 30.04 30.03 10 FEW049 6-hr Min Temp (2pm): 72.0°F
6-hr Max Temp (2pm): 86.0°F
2018-08-16 12:52 84 67 87 56 280° 12 17 30.04 30.03 10 SCT035 SCT044 None
2018-08-16 11:52 82 68 85 62 Variable 7 - 30.04 30.03 10 SCT034 BKN044 BKN055 None
2018-08-16 10:52 82 68 85 62 Variable 6 - 30.05 30.04 10 FEW030 None
2018-08-16 09:52 79 69 82 71 250° 6 - 30.05 30.04 9 CLR None
2018-08-16 08:52 76 70 80 81 Variable 5 - 30.04 30.03 8 CLR None
2018-08-16 07:52 72 69 76 90 210° 6 - 30.03 30.03 8 CLR 6-hr Min Temp (8am): 69.1°F
6-hr Max Temp (8am): 73.9°F
2018-08-16 06:52 70 68 - 93 200° 5 - 30.02 30.01 6 BR CLR None
2018-08-16 05:52 69 68 - 96 200° 5 - 30.01 30.00 8 CLR None
2018-08-16 04:52 71 68 76 90 230° 5 - 29.99 29.98 9 CLR None
2018-08-16 03:52 70 68 - 93 210° 3 - 29.98 29.97 9 CLR None
2018-08-16 02:52 74 68 78 81 260° 6 - 29.98 29.96 10 CLR None
2018-08-16 01:52 73 69 77 87 270° 3 - 29.97 29.96 10 CLR 6-hr Min Temp (2am): 70.0°F
6-hr Max Temp (2am): 78.1°F
2018-08-16 00:52 70 69 - 96 - Calm - 29.98 29.97 9 CLR 24-hr Min Temp (1am): 68.0°F
24-hr Max Temp (1am): 86.0°F
2018-08-15 23:52 73 69 77 87 200° 5 - 29.97 29.96 10 CLR None
2018-08-15 22:52 74 69 78 84 190° 6 - 29.95 29.94 10 CLR None
2018-08-15 21:52 73 70 77 90 170° 3 - 29.96 29.96 10 CLR None
2018-08-15 20:52 73 70 77 90 - Calm - 29.95 29.95 10 CLR None
2018-08-15 19:52 75 71 79 87 230° 3 - 29.93 29.93 10 CLR 6-hr Min Temp (8pm): 73.9°F
6-hr Max Temp (8pm): 86.0°F
2018-08-15 18:52 77 72 81 84 - Calm - 29.91 29.90 10 CLR None
2018-08-15 17:52 83 68 86 60 260° 3 - 29.90 29.89 10 CLR None

Support USWX by starting your Amazon purchase here.